sensor_id;sensor_type;location;lat;lon;timestamp;P1;durP1;ratioP1;P2;durP2;ratioP2
27113;SDS011;14648;49.730;8.614;2022-10-16T00:01:26;1.30;;;1.20;;
27113;SDS011;14648;49.730;8.614;2022-10-16T00:03:55;1.10;;;1.00;;
27113;SDS011;14648;49.730;8.614;2022-10-16T00:06:23;2.57;;;1.30;;
27113;SDS011;14648;49.730;8.614;2022-10-16T00:08:50;1.13;;;1.10;;
27113;SDS011;14648;49.730;8.614;2022-10-16T00:11:24;1.10;;;0.93;;
27113;SDS011;14648;49.730;8.614;2022-10-16T00:13:59;1.10;;;1.00;;
27113;SDS011;14648;49.730;8.614;2022-10-16T00:16:27;1.57;;;1.20;;
27113;SDS011;14648;49.730;8.614;2022-10-16T00:18:54;1.10;;;0.93;;
27113;SDS011;14648;49.730;8.614;2022-10-16T00:21:21;0.80;;;0.80;;
27113;SDS011;14648;49.730;8.614;2022-10-16T00:23:51;1.00;;;0.73;;
27113;SDS011;14648;49.730;8.614;2022-10-16T00:26:19;0.70;;;0.70;;
27113;SDS011;14648;49.730;8.614;2022-10-16T00:28:49;19.47;;;1.00;;
27113;SDS011;14648;49.730;8.614;2022-10-16T00:31:16;0.70;;;0.60;;
27113;SDS011;14648;49.730;8.614;2022-10-16T00:33:44;0.60;;;0.50;;
27113;SDS011;14648;49.730;8.614;2022-10-16T00:36:11;3.93;;;0.70;;
27113;SDS011;14648;49.730;8.614;2022-10-16T00:38:40;0.60;;;0.60;;
27113;SDS011;14648;49.730;8.614;2022-10-16T00:41:06;0.70;;;0.70;;
27113;SDS011;14648;49.730;8.614;2022-10-16T00:49:01;1.33;;;0.70;;
27113;SDS011;14648;49.730;8.614;2022-10-16T00:51:43;2.17;;;0.90;;
27113;SDS011;14648;49.730;8.614;2022-10-16T00:54:14;1.47;;;0.80;;
27113;SDS011;14648;49.730;8.614;2022-10-16T00:56:49;0.67;;;0.60;;
27113;SDS011;14648;49.730;8.614;2022-10-16T00:59:26;2.10;;;1.30;;
27113;SDS011;14648;49.730;8.614;2022-10-16T01:02:11;2.00;;;0.87;;
27113;SDS011;14648;49.730;8.614;2022-10-16T01:04:48;0.83;;;0.83;;
27113;SDS011;14648;49.730;8.614;2022-10-16T01:13:04;1.20;;;1.10;;
27113;SDS011;14648;49.730;8.614;2022-10-16T01:18:30;4.63;;;1.40;;
27113;SDS011;14648;49.730;8.614;2022-10-16T01:21:13;2.30;;;1.50;;
27113;SDS011;14648;49.730;8.614;2022-10-16T01:30:11;6.70;;;2.37;;
27113;SDS011;14648;49.730;8.614;2022-10-16T01:32:50;4.33;;;2.17;;
27113;SDS011;14648;49.730;8.614;2022-10-16T01:35:29;3.63;;;2.47;;
27113;SDS011;14648;49.730;8.614;2022-10-16T01:40:56;4.23;;;2.47;;
27113;SDS011;14648;49.730;8.614;2022-10-16T01:43:28;2.90;;;2.40;;
27113;SDS011;14648;49.730;8.614;2022-10-16T01:46:03;4.37;;;3.00;;
27113;SDS011;14648;49.730;8.614;2022-10-16T01:48:30;6.47;;;3.87;;
27113;SDS011;14648;49.730;8.614;2022-10-16T01:51:00;2.70;;;2.50;;
27113;SDS011;14648;49.730;8.614;2022-10-16T01:53:31;5.57;;;3.20;;
27113;SDS011;14648;49.730;8.614;2022-10-16T01:55:58;6.67;;;3.10;;
27113;SDS011;14648;49.730;8.614;2022-10-16T01:58:25;4.67;;;3.00;;
27113;SDS011;14648;49.730;8.614;2022-10-16T02:00:55;5.50;;;2.90;;
27113;SDS011;14648;49.730;8.614;2022-10-16T02:03:22;4.50;;;2.83;;
27113;SDS011;14648;49.730;8.614;2022-10-16T02:08:19;4.17;;;2.73;;
27113;SDS011;14648;49.730;8.614;2022-10-16T02:10:50;3.27;;;3.07;;
27113;SDS011;14648;49.730;8.614;2022-10-16T02:13:18;5.10;;;3.40;;
27113;SDS011;14648;49.730;8.614;2022-10-16T02:15:49;3.57;;;3.07;;
27113;SDS011;14648;49.730;8.614;2022-10-16T02:18:15;4.97;;;2.83;;
27113;SDS011;14648;49.730;8.614;2022-10-16T02:20:55;4.20;;;3.10;;
27113;SDS011;14648;49.730;8.614;2022-10-16T02:23:35;7.43;;;3.20;;
27113;SDS011;14648;49.730;8.614;2022-10-16T02:26:15;6.17;;;2.83;;
27113;SDS011;14648;49.730;8.614;2022-10-16T02:29:00;5.90;;;2.47;;
27113;SDS011;14648;49.730;8.614;2022-10-16T02:31:31;5.90;;;3.27;;
27113;SDS011;14648;49.730;8.614;2022-10-16T02:34:00;5.10;;;2.60;;
27113;SDS011;14648;49.730;8.614;2022-10-16T02:36:30;3.00;;;2.13;;
27113;SDS011;14648;49.730;8.614;2022-10-16T02:38:58;3.27;;;2.43;;
27113;SDS011;14648;49.730;8.614;2022-10-16T02:41:26;2.77;;;2.30;;
27113;SDS011;14648;49.730;8.614;2022-10-16T02:43:52;6.20;;;2.20;;
27113;SDS011;14648;49.730;8.614;2022-10-16T02:46:19;2.23;;;2.13;;
27113;SDS011;14648;49.730;8.614;2022-10-16T02:48:45;11.93;;;1.90;;
27113;SDS011;14648;49.730;8.614;2022-10-16T02:51:11;5.10;;;2.40;;
27113;SDS011;14648;49.730;8.614;2022-10-16T02:53:39;4.47;;;2.37;;
27113;SDS011;14648;49.730;8.614;2022-10-16T02:56:05;4.13;;;2.27;;
27113;SDS011;14648;49.730;8.614;2022-10-16T02:58:31;3.67;;;1.83;;
27113;SDS011;14648;49.730;8.614;2022-10-16T03:00:58;4.00;;;2.20;;
27113;SDS011;14648;49.730;8.614;2022-10-16T03:03:23;2.40;;;2.20;;
27113;SDS011;14648;49.730;8.614;2022-10-16T03:05:49;2.87;;;2.23;;
27113;SDS011;14648;49.730;8.614;2022-10-16T03:08:15;2.07;;;1.87;;
27113;SDS011;14648;49.730;8.614;2022-10-16T03:10:41;7.47;;;2.13;;
27113;SDS011;14648;49.730;8.614;2022-10-16T03:13:06;6.33;;;2.00;;
27113;SDS011;14648;49.730;8.614;2022-10-16T03:15:32;2.77;;;2.63;;
27113;SDS011;14648;49.730;8.614;2022-10-16T03:17:58;1.73;;;1.63;;
27113;SDS011;14648;49.730;8.614;2022-10-16T03:20:24;2.33;;;2.00;;
27113;SDS011;14648;49.730;8.614;2022-10-16T03:22:50;2.50;;;1.90;;
27113;SDS011;14648;49.730;8.614;2022-10-16T03:25:16;2.27;;;1.93;;
27113;SDS011;14648;49.730;8.614;2022-10-16T03:27:42;1.50;;;1.40;;
27113;SDS011;14648;49.730;8.614;2022-10-16T03:30:08;2.60;;;2.07;;
27113;SDS011;14648;49.730;8.614;2022-10-16T03:32:34;5.70;;;1.40;;
27113;SDS011;14648;49.730;8.614;2022-10-16T03:35:00;3.50;;;1.33;;
27113;SDS011;14648;49.730;8.614;2022-10-16T03:37:26;1.50;;;1.40;;
27113;SDS011;14648;49.730;8.614;2022-10-16T03:39:52;3.70;;;1.67;;
27113;SDS011;14648;49.730;8.614;2022-10-16T03:42:18;2.90;;;1.53;;
27113;SDS011;14648;49.730;8.614;2022-10-16T03:44:44;1.87;;;1.77;;
27113;SDS011;14648;49.730;8.614;2022-10-16T03:47:10;4.60;;;2.00;;
27113;SDS011;14648;49.730;8.614;2022-10-16T03:49:35;1.60;;;1.50;;
27113;SDS011;14648;49.730;8.614;2022-10-16T03:52:01;1.70;;;1.60;;
27113;SDS011;14648;49.730;8.614;2022-10-16T03:54:27;5.50;;;2.10;;
27113;SDS011;14648;49.730;8.614;2022-10-16T03:56:52;1.60;;;1.50;;
27113;SDS011;14648;49.730;8.614;2022-10-16T03:59:18;5.53;;;1.77;;
27113;SDS011;14648;49.730;8.614;2022-10-16T04:01:44;6.63;;;2.63;;
27113;SDS011;14648;49.730;8.614;2022-10-16T04:04:09;5.10;;;2.03;;
27113;SDS011;14648;49.730;8.614;2022-10-16T04:06:35;7.23;;;2.07;;
27113;SDS011;14648;49.730;8.614;2022-10-16T04:09:01;1.83;;;1.73;;
27113;SDS011;14648;49.730;8.614;2022-10-16T04:11:27;2.73;;;1.90;;
27113;SDS011;14648;49.730;8.614;2022-10-16T04:13:53;2.07;;;1.80;;
27113;SDS011;14648;49.730;8.614;2022-10-16T04:16:18;5.70;;;2.20;;
27113;SDS011;14648;49.730;8.614;2022-10-16T04:18:44;1.80;;;1.70;;
27113;SDS011;14648;49.730;8.614;2022-10-16T04:21:11;2.30;;;1.27;;
27113;SDS011;14648;49.730;8.614;2022-10-16T04:23:36;2.00;;;1.90;;
27113;SDS011;14648;49.730;8.614;2022-10-16T04:26:02;6.40;;;2.43;;
27113;SDS011;14648;49.730;8.614;2022-10-16T04:28:28;3.33;;;2.47;;
27113;SDS011;14648;49.730;8.614;2022-10-16T04:30:54;3.43;;;1.80;;
27113;SDS011;14648;49.730;8.614;2022-10-16T04:33:20;1.70;;;1.60;;
27113;SDS011;14648;49.730;8.614;2022-10-16T04:35:45;6.00;;;2.00;;
27113;SDS011;14648;49.730;8.614;2022-10-16T04:38:11;2.23;;;2.03;;
27113;SDS011;14648;49.730;8.614;2022-10-16T04:40:37;1.50;;;1.40;;
27113;SDS011;14648;49.730;8.614;2022-10-16T04:43:03;3.20;;;1.50;;
27113;SDS011;14648;49.730;8.614;2022-10-16T04:45:30;3.50;;;1.40;;
27113;SDS011;14648;49.730;8.614;2022-10-16T04:47:56;6.63;;;1.97;;
27113;SDS011;14648;49.730;8.614;2022-10-16T04:50:24;3.50;;;1.70;;
27113;SDS011;14648;49.730;8.614;2022-10-16T04:52:49;1.50;;;1.40;;
27113;SDS011;14648;49.730;8.614;2022-10-16T04:55:15;1.90;;;1.80;;
27113;SDS011;14648;49.730;8.614;2022-10-16T04:57:41;5.57;;;2.20;;
27113;SDS011;14648;49.730;8.614;2022-10-16T05:00:07;2.23;;;1.60;;
27113;SDS011;14648;49.730;8.614;2022-10-16T05:02:33;3.43;;;1.87;;
27113;SDS011;14648;49.730;8.614;2022-10-16T05:04:59;6.50;;;2.23;;
27113;SDS011;14648;49.730;8.614;2022-10-16T05:07:25;2.53;;;1.30;;
27113;SDS011;14648;49.730;8.614;2022-10-16T05:09:50;2.80;;;1.50;;
27113;SDS011;14648;49.730;8.614;2022-10-16T05:12:16;7.03;;;1.87;;
27113;SDS011;14648;49.730;8.614;2022-10-16T05:14:42;1.77;;;1.67;;
27113;SDS011;14648;49.730;8.614;2022-10-16T05:17:07;5.80;;;1.93;;
27113;SDS011;14648;49.730;8.614;2022-10-16T05:19:33;4.43;;;1.80;;
27113;SDS011;14648;49.730;8.614;2022-10-16T05:21:59;1.97;;;1.37;;
27113;SDS011;14648;49.730;8.614;2022-10-16T05:24:25;4.53;;;1.70;;
27113;SDS011;14648;49.730;8.614;2022-10-16T05:26:51;3.37;;;1.47;;
27113;SDS011;14648;49.730;8.614;2022-10-16T05:29:17;2.93;;;1.30;;
27113;SDS011;14648;49.730;8.614;2022-10-16T05:31:43;2.63;;;1.27;;
27113;SDS011;14648;49.730;8.614;2022-10-16T05:34:09;1.63;;;1.50;;
27113;SDS011;14648;49.730;8.614;2022-10-16T05:36:35;1.60;;;1.47;;
27113;SDS011;14648;49.730;8.614;2022-10-16T05:39:00;4.30;;;1.33;;
27113;SDS011;14648;49.730;8.614;2022-10-16T05:41:27;3.60;;;2.10;;
27113;SDS011;14648;49.730;8.614;2022-10-16T05:43:52;1.73;;;1.63;;
27113;SDS011;14648;49.730;8.614;2022-10-16T05:46:18;1.60;;;1.50;;
27113;SDS011;14648;49.730;8.614;2022-10-16T05:48:44;2.60;;;1.57;;
27113;SDS011;14648;49.730;8.614;2022-10-16T05:51:11;4.40;;;1.77;;
27113;SDS011;14648;49.730;8.614;2022-10-16T05:53:39;1.73;;;1.63;;
27113;SDS011;14648;49.730;8.614;2022-10-16T05:56:06;3.77;;;1.43;;
27113;SDS011;14648;49.730;8.614;2022-10-16T05:58:35;2.80;;;1.50;;
27113;SDS011;14648;49.730;8.614;2022-10-16T06:01:03;8.43;;;1.60;;
27113;SDS011;14648;49.730;8.614;2022-10-16T06:03:32;3.20;;;2.07;;
27113;SDS011;14648;49.730;8.614;2022-10-16T06:05:58;1.30;;;1.17;;
27113;SDS011;14648;49.730;8.614;2022-10-16T06:08:24;3.47;;;1.73;;
27113;SDS011;14648;49.730;8.614;2022-10-16T06:11:12;2.37;;;1.73;;
27113;SDS011;14648;49.730;8.614;2022-10-16T06:13:44;2.17;;;1.70;;
27113;SDS011;14648;49.730;8.614;2022-10-16T06:16:14;1.80;;;1.70;;
27113;SDS011;14648;49.730;8.614;2022-10-16T06:18:40;4.33;;;2.00;;
27113;SDS011;14648;49.730;8.614;2022-10-16T06:21:10;2.70;;;1.53;;
27113;SDS011;14648;49.730;8.614;2022-10-16T06:23:39;1.97;;;1.67;;
27113;SDS011;14648;49.730;8.614;2022-10-16T06:26:09;2.30;;;1.57;;
27113;SDS011;14648;49.730;8.614;2022-10-16T06:28:38;1.47;;;1.37;;
27113;SDS011;14648;49.730;8.614;2022-10-16T06:31:05;10.50;;;1.80;;
27113;SDS011;14648;49.730;8.614;2022-10-16T06:33:33;2.63;;;2.00;;
27113;SDS011;14648;49.730;8.614;2022-10-16T06:36:14;2.80;;;1.80;;
27113;SDS011;14648;49.730;8.614;2022-10-16T06:38:42;4.93;;;1.30;;
27113;SDS011;14648;49.730;8.614;2022-10-16T06:41:09;6.17;;;1.73;;
27113;SDS011;14648;49.730;8.614;2022-10-16T06:43:38;5.90;;;1.33;;
27113;SDS011;14648;49.730;8.614;2022-10-16T06:46:04;1.87;;;1.77;;
27113;SDS011;14648;49.730;8.614;2022-10-16T06:48:35;1.50;;;1.40;;
27113;SDS011;14648;49.730;8.614;2022-10-16T06:51:05;1.97;;;1.20;;
27113;SDS011;14648;49.730;8.614;2022-10-16T06:53:39;3.20;;;1.63;;
27113;SDS011;14648;49.730;8.614;2022-10-16T06:58:39;3.77;;;1.80;;
27113;SDS011;14648;49.730;8.614;2022-10-16T07:01:06;3.87;;;1.40;;
27113;SDS011;14648;49.730;8.614;2022-10-16T07:03:32;1.30;;;1.13;;
27113;SDS011;14648;49.730;8.614;2022-10-16T07:06:04;1.63;;;1.50;;
27113;SDS011;14648;49.730;8.614;2022-10-16T07:08:33;2.03;;;1.53;;
27113;SDS011;14648;49.730;8.614;2022-10-16T07:11:01;2.70;;;1.33;;
27113;SDS011;14648;49.730;8.614;2022-10-16T07:13:28;1.60;;;1.50;;
27113;SDS011;14648;49.730;8.614;2022-10-16T07:15:54;3.13;;;1.50;;
27113;SDS011;14648;49.730;8.614;2022-10-16T07:18:20;1.40;;;1.30;;
27113;SDS011;14648;49.730;8.614;2022-10-16T07:20:46;2.40;;;1.63;;
27113;SDS011;14648;49.730;8.614;2022-10-16T07:23:12;1.03;;;1.03;;
27113;SDS011;14648;49.730;8.614;2022-10-16T07:25:38;4.50;;;1.30;;
27113;SDS011;14648;49.730;8.614;2022-10-16T07:28:03;1.97;;;1.23;;
27113;SDS011;14648;49.730;8.614;2022-10-16T07:30:29;3.53;;;1.30;;
27113;SDS011;14648;49.730;8.614;2022-10-16T07:32:55;1.20;;;1.10;;
27113;SDS011;14648;49.730;8.614;2022-10-16T07:35:20;12.77;;;1.70;;
27113;SDS011;14648;49.730;8.614;2022-10-16T07:37:46;5.67;;;1.20;;
27113;SDS011;14648;49.730;8.614;2022-10-16T07:40:12;2.30;;;1.07;;
27113;SDS011;14648;49.730;8.614;2022-10-16T07:42:38;1.27;;;1.17;;
27113;SDS011;14648;49.730;8.614;2022-10-16T07:45:03;2.43;;;1.43;;
27113;SDS011;14648;49.730;8.614;2022-10-16T07:47:30;2.13;;;1.10;;
27113;SDS011;14648;49.730;8.614;2022-10-16T07:49:56;2.20;;;1.13;;
27113;SDS011;14648;49.730;8.614;2022-10-16T07:52:21;1.40;;;1.30;;
27113;SDS011;14648;49.730;8.614;2022-10-16T07:54:47;8.93;;;1.80;;
27113;SDS011;14648;49.730;8.614;2022-10-16T07:57:13;2.30;;;1.37;;
27113;SDS011;14648;49.730;8.614;2022-10-16T07:59:44;1.63;;;1.10;;
27113;SDS011;14648;49.730;8.614;2022-10-16T08:02:12;1.63;;;1.47;;
27113;SDS011;14648;49.730;8.614;2022-10-16T08:04:37;1.10;;;1.10;;
27113;SDS011;14648;49.730;8.614;2022-10-16T08:07:03;2.90;;;1.10;;
27113;SDS011;14648;49.730;8.614;2022-10-16T08:09:29;6.40;;;1.20;;
27113;SDS011;14648;49.730;8.614;2022-10-16T08:11:54;4.33;;;1.20;;
27113;SDS011;14648;49.730;8.614;2022-10-16T08:14:20;3.73;;;1.73;;
27113;SDS011;14648;49.730;8.614;2022-10-16T08:16:46;3.83;;;1.37;;
27113;SDS011;14648;49.730;8.614;2022-10-16T08:19:11;3.67;;;1.67;;
27113;SDS011;14648;49.730;8.614;2022-10-16T08:21:37;1.30;;;1.20;;
27113;SDS011;14648;49.730;8.614;2022-10-16T08:24:03;4.00;;;1.73;;
27113;SDS011;14648;49.730;8.614;2022-10-16T08:26:29;1.40;;;1.07;;
27113;SDS011;14648;49.730;8.614;2022-10-16T08:28:55;6.53;;;1.20;;
27113;SDS011;14648;49.730;8.614;2022-10-16T08:31:24;2.80;;;1.40;;
27113;SDS011;14648;49.730;8.614;2022-10-16T08:33:51;2.20;;;1.40;;
27113;SDS011;14648;49.730;8.614;2022-10-16T08:36:17;3.53;;;1.97;;
27113;SDS011;14648;49.730;8.614;2022-10-16T08:38:43;5.17;;;1.87;;
27113;SDS011;14648;49.730;8.614;2022-10-16T08:49:26;13.60;;;3.00;;
27113;SDS011;14648;49.730;8.614;2022-10-16T08:51:52;5.00;;;2.63;;
27113;SDS011;14648;49.730;8.614;2022-10-16T08:54:23;7.20;;;3.30;;
27113;SDS011;14648;49.730;8.614;2022-10-16T08:56:55;3.33;;;1.97;;
27113;SDS011;14648;49.730;8.614;2022-10-16T08:59:22;2.90;;;2.40;;
27113;SDS011;14648;49.730;8.614;2022-10-16T09:01:49;5.80;;;2.97;;
27113;SDS011;14648;49.730;8.614;2022-10-16T09:07:17;7.33;;;1.90;;
27113;SDS011;14648;49.730;8.614;2022-10-16T09:13:13;1.67;;;1.50;;
27113;SDS011;14648;49.730;8.614;2022-10-16T09:23:40;2.63;;;2.23;;
27113;SDS011;14648;49.730;8.614;2022-10-16T09:26:09;6.30;;;2.20;;
27113;SDS011;14648;49.730;8.614;2022-10-16T09:28:38;1.80;;;1.70;;
27113;SDS011;14648;49.730;8.614;2022-10-16T09:31:04;11.13;;;1.93;;
27113;SDS011;14648;49.730;8.614;2022-10-16T09:33:37;6.73;;;1.80;;
27113;SDS011;14648;49.730;8.614;2022-10-16T09:36:05;4.43;;;2.30;;
27113;SDS011;14648;49.730;8.614;2022-10-16T09:38:32;2.57;;;1.50;;
27113;SDS011;14648;49.730;8.614;2022-10-16T09:41:17;2.77;;;2.57;;
27113;SDS011;14648;49.730;8.614;2022-10-16T09:43:48;3.63;;;1.70;;
27113;SDS011;14648;49.730;8.614;2022-10-16T09:46:26;2.70;;;1.77;;
27113;SDS011;14648;49.730;8.614;2022-10-16T09:51:47;1.90;;;1.60;;
27113;SDS011;14648;49.730;8.614;2022-10-16T09:56:44;1.83;;;0.90;;
27113;SDS011;14648;49.730;8.614;2022-10-16T09:59:15;1.90;;;1.30;;
27113;SDS011;14648;49.730;8.614;2022-10-16T10:01:54;1.00;;;0.90;;
27113;SDS011;14648;49.730;8.614;2022-10-16T10:04:21;3.47;;;0.90;;
27113;SDS011;14648;49.730;8.614;2022-10-16T10:06:50;4.07;;;1.60;;
27113;SDS011;14648;49.730;8.614;2022-10-16T10:09:34;1.50;;;1.27;;
27113;SDS011;14648;49.730;8.614;2022-10-16T10:12:04;1.20;;;1.00;;
27113;SDS011;14648;49.730;8.614;2022-10-16T10:20:29;1.50;;;1.40;;
27113;SDS011;14648;49.730;8.614;2022-10-16T10:22:59;1.20;;;1.10;;
27113;SDS011;14648;49.730;8.614;2022-10-16T10:28:18;4.73;;;1.10;;
27113;SDS011;14648;49.730;8.614;2022-10-16T10:33:52;1.73;;;1.30;;
27113;SDS011;14648;49.730;8.614;2022-10-16T10:36:41;1.33;;;1.20;;
27113;SDS011;14648;49.730;8.614;2022-10-16T10:39:22;1.97;;;1.77;;
27113;SDS011;14648;49.730;8.614;2022-10-16T10:47:46;1.63;;;1.53;;
27113;SDS011;14648;49.730;8.614;2022-10-16T10:50:27;0.97;;;0.97;;
27113;SDS011;14648;49.730;8.614;2022-10-16T10:53:00;3.13;;;1.10;;
27113;SDS011;14648;49.730;8.614;2022-10-16T11:01:41;2.47;;;1.60;;
27113;SDS011;14648;49.730;8.614;2022-10-16T11:04:33;2.17;;;1.07;;
27113;SDS011;14648;49.730;8.614;2022-10-16T11:07:29;4.47;;;2.30;;
27113;SDS011;14648;49.730;8.614;2022-10-16T11:10:09;5.17;;;1.70;;
27113;SDS011;14648;49.730;8.614;2022-10-16T11:12:47;1.33;;;1.23;;
27113;SDS011;14648;49.730;8.614;2022-10-16T11:15:25;3.00;;;1.63;;
27113;SDS011;14648;49.730;8.614;2022-10-16T11:20:31;1.57;;;1.47;;
27113;SDS011;14648;49.730;8.614;2022-10-16T11:25:56;1.60;;;1.50;;
27113;SDS011;14648;49.730;8.614;2022-10-16T11:28:31;3.30;;;1.50;;
27113;SDS011;14648;49.730;8.614;2022-10-16T11:31:03;3.17;;;1.50;;
27113;SDS011;14648;49.730;8.614;2022-10-16T11:36:18;1.30;;;1.20;;
27113;SDS011;14648;49.730;8.614;2022-10-16T11:44:25;2.17;;;1.40;;
27113;SDS011;14648;49.730;8.614;2022-10-16T11:47:09;1.50;;;1.23;;
27113;SDS011;14648;49.730;8.614;2022-10-16T11:49:49;3.40;;;1.63;;
27113;SDS011;14648;49.730;8.614;2022-10-16T11:52:27;4.43;;;1.80;;
27113;SDS011;14648;49.730;8.614;2022-10-16T11:55:17;1.53;;;1.43;;
27113;SDS011;14648;49.730;8.614;2022-10-16T11:57:53;2.43;;;1.53;;
27113;SDS011;14648;49.730;8.614;2022-10-16T12:00:26;1.30;;;1.20;;
27113;SDS011;14648;49.730;8.614;2022-10-16T12:09:09;1.53;;;1.43;;
27113;SDS011;14648;49.730;8.614;2022-10-16T12:11:45;3.10;;;1.73;;
27113;SDS011;14648;49.730;8.614;2022-10-16T12:16:58;9.13;;;1.87;;
27113;SDS011;14648;49.730;8.614;2022-10-16T12:19:25;3.93;;;1.97;;
27113;SDS011;14648;49.730;8.614;2022-10-16T12:21:55;2.20;;;1.47;;
27113;SDS011;14648;49.730;8.614;2022-10-16T12:27:02;3.00;;;2.07;;
27113;SDS011;14648;49.730;8.614;2022-10-16T12:32:05;4.00;;;1.73;;
27113;SDS011;14648;49.730;8.614;2022-10-16T12:34:51;1.60;;;1.37;;
27113;SDS011;14648;49.730;8.614;2022-10-16T12:37:23;2.03;;;1.93;;
27113;SDS011;14648;49.730;8.614;2022-10-16T12:39:53;6.03;;;2.03;;
27113;SDS011;14648;49.730;8.614;2022-10-16T12:44:59;1.80;;;1.70;;
27113;SDS011;14648;49.730;8.614;2022-10-16T12:49:57;4.03;;;1.50;;
27113;SDS011;14648;49.730;8.614;2022-10-16T12:54:59;4.57;;;1.70;;
27113;SDS011;14648;49.730;8.614;2022-10-16T13:00:09;2.73;;;2.23;;
27113;SDS011;14648;49.730;8.614;2022-10-16T13:11:32;1.60;;;1.50;;
27113;SDS011;14648;49.730;8.614;2022-10-16T13:20:33;1.70;;;1.60;;
27113;SDS011;14648;49.730;8.614;2022-10-16T13:29:32;2.10;;;2.00;;
27113;SDS011;14648;49.730;8.614;2022-10-16T13:31:59;1.87;;;1.73;;
27113;SDS011;14648;49.730;8.614;2022-10-16T13:34:26;1.93;;;1.83;;
27113;SDS011;14648;49.730;8.614;2022-10-16T13:36:53;5.53;;;1.77;;
27113;SDS011;14648;49.730;8.614;2022-10-16T13:39:23;10.17;;;1.73;;
27113;SDS011;14648;49.730;8.614;2022-10-16T13:44:31;5.07;;;2.07;;
27113;SDS011;14648;49.730;8.614;2022-10-16T13:47:18;5.97;;;2.17;;
27113;SDS011;14648;49.730;8.614;2022-10-16T13:50:03;2.60;;;1.83;;
27113;SDS011;14648;49.730;8.614;2022-10-16T13:52:34;8.20;;;1.47;;
27113;SDS011;14648;49.730;8.614;2022-10-16T13:55:00;3.10;;;1.83;;
27113;SDS011;14648;49.730;8.614;2022-10-16T13:57:26;4.60;;;1.70;;
27113;SDS011;14648;49.730;8.614;2022-10-16T13:59:52;11.30;;;1.80;;
27113;SDS011;14648;49.730;8.614;2022-10-16T14:02:31;6.57;;;2.27;;
27113;SDS011;14648;49.730;8.614;2022-10-16T14:05:00;2.93;;;1.67;;
27113;SDS011;14648;49.730;8.614;2022-10-16T14:07:30;10.60;;;2.00;;
27113;SDS011;14648;49.730;8.614;2022-10-16T14:10:02;2.97;;;1.70;;
27113;SDS011;14648;49.730;8.614;2022-10-16T14:12:31;2.40;;;2.30;;
27113;SDS011;14648;49.730;8.614;2022-10-16T14:14:57;12.63;;;1.80;;
27113;SDS011;14648;49.730;8.614;2022-10-16T14:17:32;6.37;;;2.20;;
27113;SDS011;14648;49.730;8.614;2022-10-16T14:20:02;6.30;;;2.47;;
27113;SDS011;14648;49.730;8.614;2022-10-16T14:22:32;2.33;;;1.93;;
27113;SDS011;14648;49.730;8.614;2022-10-16T14:25:00;2.30;;;2.13;;
27113;SDS011;14648;49.730;8.614;2022-10-16T14:27:45;1.87;;;1.70;;
27113;SDS011;14648;49.730;8.614;2022-10-16T14:30:23;3.87;;;1.83;;
27113;SDS011;14648;49.730;8.614;2022-10-16T14:33:24;12.47;;;2.67;;
27113;SDS011;14648;49.730;8.614;2022-10-16T14:38:37;4.00;;;2.10;;
27113;SDS011;14648;49.730;8.614;2022-10-16T14:41:08;2.67;;;1.70;;
27113;SDS011;14648;49.730;8.614;2022-10-16T14:43:39;8.10;;;2.13;;
27113;SDS011;14648;49.730;8.614;2022-10-16T14:46:17;1.87;;;1.77;;
27113;SDS011;14648;49.730;8.614;2022-10-16T14:48:46;3.20;;;1.47;;
27113;SDS011;14648;49.730;8.614;2022-10-16T14:51:15;4.10;;;1.67;;
27113;SDS011;14648;49.730;8.614;2022-10-16T14:53:44;2.37;;;1.73;;
27113;SDS011;14648;49.730;8.614;2022-10-16T14:56:17;4.60;;;2.37;;
27113;SDS011;14648;49.730;8.614;2022-10-16T14:58:52;3.40;;;2.07;;
27113;SDS011;14648;49.730;8.614;2022-10-16T15:01:19;5.07;;;1.70;;
27113;SDS011;14648;49.730;8.614;2022-10-16T15:03:45;7.80;;;2.40;;
27113;SDS011;14648;49.730;8.614;2022-10-16T15:06:11;7.77;;;1.87;;
27113;SDS011;14648;49.730;8.614;2022-10-16T15:08:41;2.57;;;1.40;;
27113;SDS011;14648;49.730;8.614;2022-10-16T15:11:14;12.90;;;2.37;;
27113;SDS011;14648;49.730;8.614;2022-10-16T15:13:42;7.57;;;1.90;;
27113;SDS011;14648;49.730;8.614;2022-10-16T15:16:12;3.33;;;1.83;;
27113;SDS011;14648;49.730;8.614;2022-10-16T15:18:40;4.30;;;2.10;;
27113;SDS011;14648;49.730;8.614;2022-10-16T15:21:06;2.40;;;1.60;;
27113;SDS011;14648;49.730;8.614;2022-10-16T15:23:33;5.57;;;1.80;;
27113;SDS011;14648;49.730;8.614;2022-10-16T15:25:58;2.10;;;2.00;;
27113;SDS011;14648;49.730;8.614;2022-10-16T15:28:24;8.83;;;2.40;;
27113;SDS011;14648;49.730;8.614;2022-10-16T15:30:52;7.20;;;1.93;;
27113;SDS011;14648;49.730;8.614;2022-10-16T15:33:21;3.40;;;1.60;;
27113;SDS011;14648;49.730;8.614;2022-10-16T15:35:54;5.70;;;2.73;;
27113;SDS011;14648;49.730;8.614;2022-10-16T15:38:20;2.83;;;2.03;;
27113;SDS011;14648;49.730;8.614;2022-10-16T15:40:48;1.40;;;1.30;;
27113;SDS011;14648;49.730;8.614;2022-10-16T15:43:14;4.40;;;2.40;;
27113;SDS011;14648;49.730;8.614;2022-10-16T15:45:40;7.53;;;1.90;;
27113;SDS011;14648;49.730;8.614;2022-10-16T15:48:08;2.37;;;1.50;;
27113;SDS011;14648;49.730;8.614;2022-10-16T15:50:37;4.43;;;2.33;;
27113;SDS011;14648;49.730;8.614;2022-10-16T15:53:04;4.67;;;1.77;;
27113;SDS011;14648;49.730;8.614;2022-10-16T15:55:30;2.30;;;1.70;;
27113;SDS011;14648;49.730;8.614;2022-10-16T15:57:55;5.80;;;2.10;;
27113;SDS011;14648;49.730;8.614;2022-10-16T16:00:21;8.43;;;2.40;;
27113;SDS011;14648;49.730;8.614;2022-10-16T16:02:51;4.40;;;1.83;;
27113;SDS011;14648;49.730;8.614;2022-10-16T16:05:18;12.40;;;2.03;;
27113;SDS011;14648;49.730;8.614;2022-10-16T16:07:45;4.53;;;1.80;;
27113;SDS011;14648;49.730;8.614;2022-10-16T16:10:11;2.00;;;1.80;;
27113;SDS011;14648;49.730;8.614;2022-10-16T16:12:38;2.67;;;2.23;;
27113;SDS011;14648;49.730;8.614;2022-10-16T16:15:05;4.27;;;1.90;;
27113;SDS011;14648;49.730;8.614;2022-10-16T16:17:33;6.57;;;1.83;;
27113;SDS011;14648;49.730;8.614;2022-10-16T16:20:00;2.20;;;2.00;;
27113;SDS011;14648;49.730;8.614;2022-10-16T16:22:27;6.47;;;2.57;;
27113;SDS011;14648;49.730;8.614;2022-10-16T16:24:53;5.57;;;1.83;;
27113;SDS011;14648;49.730;8.614;2022-10-16T16:27:19;2.00;;;1.80;;
27113;SDS011;14648;49.730;8.614;2022-10-16T16:29:46;2.03;;;1.87;;
27113;SDS011;14648;49.730;8.614;2022-10-16T16:32:12;2.78;;;1.75;;
27113;SDS011;14648;49.730;8.614;2022-10-16T16:34:38;2.10;;;1.97;;
27113;SDS011;14648;49.730;8.614;2022-10-16T16:37:03;4.47;;;1.47;;
27113;SDS011;14648;49.730;8.614;2022-10-16T16:39:29;2.00;;;1.50;;
27113;SDS011;14648;49.730;8.614;2022-10-16T16:41:55;7.37;;;2.10;;
27113;SDS011;14648;49.730;8.614;2022-10-16T16:44:23;4.80;;;1.90;;
27113;SDS011;14648;49.730;8.614;2022-10-16T16:46:50;2.23;;;1.93;;
27113;SDS011;14648;49.730;8.614;2022-10-16T16:49:16;3.73;;;1.90;;
27113;SDS011;14648;49.730;8.614;2022-10-16T16:51:42;2.50;;;2.30;;
27113;SDS011;14648;49.730;8.614;2022-10-16T16:54:09;4.83;;;2.33;;
27113;SDS011;14648;49.730;8.614;2022-10-16T16:56:36;11.13;;;2.80;;
27113;SDS011;14648;49.730;8.614;2022-10-16T16:59:02;6.90;;;2.40;;
27113;SDS011;14648;49.730;8.614;2022-10-16T17:01:29;3.33;;;1.97;;
27113;SDS011;14648;49.730;8.614;2022-10-16T17:03:56;10.83;;;1.90;;
27113;SDS011;14648;49.730;8.614;2022-10-16T17:06:26;5.33;;;2.23;;
27113;SDS011;14648;49.730;8.614;2022-10-16T17:08:56;8.07;;;3.13;;
27113;SDS011;14648;49.730;8.614;2022-10-16T17:11:24;1.80;;;1.70;;
27113;SDS011;14648;49.730;8.614;2022-10-16T17:13:51;11.60;;;3.03;;
27113;SDS011;14648;49.730;8.614;2022-10-16T17:16:20;10.43;;;2.10;;
27113;SDS011;14648;49.730;8.614;2022-10-16T17:18:48;2.63;;;2.10;;
27113;SDS011;14648;49.730;8.614;2022-10-16T17:21:14;8.18;;;2.03;;
27113;SDS011;14648;49.730;8.614;2022-10-16T17:23:40;13.30;;;2.47;;
27113;SDS011;14648;49.730;8.614;2022-10-16T17:26:06;4.50;;;2.03;;